Pagrindinis puslapis
METAR-TAF:

METAR-TAF

Oro uostai :

Wales, Aliaska, Jungtinės Amerikos Valstijos

platuma: 65-37-21N, ilguma: 168-05-42W, Aukštis: 7 m

Dabartinis oras

Ataskaita buvo paskelbta 37 minutes, ne 03:56 UTC
Vėjas 11 kt iš Šiaurės Vakarų
Temperatūra 6°C
Drėgmė 81%
Slėgis 999 hPa
Matomumas: 16.1 km
Mažai debesys ne aukštis 2100 ft
Su prošvaistėmis ne aukštis 2600 ft
Apsiniaukę ne aukštis 4800 ft

METAR: PAIW 210356Z AUTO 32011KT 10SM FEW021 BKN026 OVC048 06/03 A2951 RMK AO2 SLP994 T00560028

Laikas: 20:33 (04:33 UTC)


TAF: trūkstamas

Orai ataskaitas ir orų prognozės (METAR, TAF).

turimą stotys yra geltonos ir raudonos taškus žemėlapyje.

Perkelti pele per norėdami pamatyti stoties vardą.

Tada spustelėkite, norėdami matyti oro stebėjimo ir prognozės.

Norėdami pakeisti žemėlapį: spustelėkite ant žalios mygtukų su juodo kryžiaus žemyn,; žalią mygtuką su brūkšneliu, jei norite nutolinti; arba žalių rodyklių gretimoms žemėlapius.


METAR-TAF: